Time;durP1;ratioP1;P1;durP2;ratioP2;P2;SDS_P1;SDS_P2;PMS_P1;PMS_P2;Temp;Humidity;BMP_temperature;BMP_pressure;BME280_temperature;BME280_humidity;BME280_pressure;Samples;Min_cycle;Max_cycle;Signal;HPM_P1;HPM_P2
2022/03/05 04:00:40;;;;;;;2.17;1.80;;;15.00;48.10;;;;;;5797591;23;45816;-65
2022/03/05 04:03:06;;;;;;;4.72;2.00;;;15.00;48.20;;;;;;4903900;28;44915;-65
2022/03/05 04:05:32;;;;;;;2.05;1.80;;;15.00;48.20;;;;;;4922521;28;46206;-65
2022/03/05 04:10:42;;;;;;;2.33;1.85;;;15.00;48.10;;;;;;4926698;28;45392;-64
2022/03/05 04:13:08;;;;;;;2.17;1.80;;;15.00;48.00;;;;;;4910273;28;45289;-64
2022/03/05 04:15:33;;;;;;;3.08;2.00;;;15.00;48.10;;;;;;4930956;28;45146;-65
2022/03/05 04:17:59;;;;;;;3.05;2.28;;;15.00;48.10;;;;;;4912972;28;45890;-64
2022/03/05 04:20:25;;;;;;;2.05;1.55;;;15.00;48.10;;;;;;4912558;28;45185;-65
2022/03/05 04:22:51;;;;;;;2.40;1.83;;;15.00;48.10;;;;;;4928423;28;44737;-64
2022/03/05 04:25:16;;;;;;;2.78;2.10;;;15.00;48.10;;;;;;4945862;28;44918;-65
2022/03/05 04:27:42;;;;;;;2.38;1.70;;;15.00;48.10;;;;;;4927420;28;45158;-65
2022/03/05 04:30:08;;;;;;;3.03;2.20;;;14.90;48.10;;;;;;4946954;28;45268;-64
2022/03/05 04:32:34;;;;;;;2.05;1.85;;;15.00;48.10;;;;;;4887722;28;45142;-65
2022/03/05 04:34:59;;;;;;;2.97;2.05;;;14.90;48.10;;;;;;4945054;28;45536;-65
2022/03/05 04:37:25;;;;;;;2.50;1.77;;;14.90;48.10;;;;;;4931590;28;45586;-64
2022/03/05 04:39:50;;;;;;;3.30;2.03;;;14.90;48.10;;;;;;4928585;28;45806;-65
2022/03/05 04:42:16;;;;;;;2.00;1.80;;;14.90;48.20;;;;;;4945865;28;45443;-64
2022/03/05 04:44:41;;;;;;;2.30;1.90;;;14.90;48.20;;;;;;4924612;28;45357;-64
2022/03/05 04:47:07;;;;;;;2.22;1.60;;;14.90;48.20;;;;;;4942105;28;45454;-65
2022/03/05 04:49:33;;;;;;;2.20;1.88;;;14.90;48.20;;;;;;4919830;28;45474;-65
2022/03/05 04:51:58;;;;;;;2.10;1.58;;;14.90;48.20;;;;;;4934102;28;45186;-64
2022/03/05 04:54:25;;;;;;;2.30;1.90;;;14.90;48.20;;;;;;4927190;28;45149;-64
2022/03/05 04:56:51;;;;;;;2.53;1.92;;;14.80;48.20;;;;;;4949562;28;45239;-64
2022/03/05 04:59:16;;;;;;;2.38;1.90;;;14.80;48.80;;;;;;4940389;28;44707;-65
2022/03/05 05:01:42;;;;;;;2.28;1.90;;;14.80;48.20;;;;;;4927107;28;45386;-64
2022/03/05 05:04:08;;;;;;;2.58;1.80;;;14.80;48.20;;;;;;4924677;28;44829;-65
2022/03/05 05:06:33;;;;;;;2.30;1.90;;;14.80;48.20;;;;;;4922752;28;45139;-65
2022/03/05 05:08:59;;;;;;;2.60;1.85;;;14.80;48.20;;;;;;4923155;28;45188;-65
2022/03/05 05:11:24;;;;;;;2.03;1.67;;;14.80;48.20;;;;;;4931074;28;45995;-65
2022/03/05 05:13:50;;;;;;;2.35;1.90;;;14.80;48.30;;;;;;4944322;28;45340;-64
2022/03/05 05:16:16;;;;;;;2.70;2.17;;;14.70;48.20;;;;;;4921493;28;46201;-62
2022/03/05 05:19:24;;;;;;;2.78;1.92;;;14.80;48.20;;;;;;4928023;28;45638;-63
2022/03/05 05:21:27;;;;;;;2.88;2.20;;;14.70;48.20;;;;;;4934737;28;45225;-63
2022/03/05 05:23:52;;;;;;;3.00;2.20;;;14.80;48.20;;;;;;4934116;28;45259;-63
2022/03/05 05:26:18;;;;;;;2.40;2.20;;;14.80;48.80;;;;;;4940972;28;46160;-63
2022/03/05 05:28:43;;;;;;;3.00;2.10;;;14.70;48.20;;;;;;4943517;28;45266;-63
2022/03/05 05:31:09;;;;;;;2.97;1.98;;;14.70;48.30;;;;;;4920028;28;45309;-63
2022/03/05 05:33:35;;;;;;;2.60;1.70;;;14.70;48.20;;;;;;4908075;28;45421;-63
2022/03/05 05:36:01;;;;;;;2.25;1.90;;;14.70;48.20;;;;;;4932464;28;45030;-62
2022/03/05 05:38:26;;;;;;;2.85;2.10;;;14.70;48.20;;;;;;4936272;28;45167;-63
2022/03/05 05:40:52;;;;;;;1.92;1.73;;;14.70;48.20;;;;;;4937910;28;45244;-63
2022/03/05 05:43:17;;;;;;;3.00;2.03;;;14.70;48.00;;;;;;4928840;28;45240;-65
2022/03/05 05:45:43;;;;;;;2.83;2.05;;;14.90;47.80;;;;;;4950456;28;45897;-63
2022/03/05 05:48:08;;;;;;;2.30;1.88;;;15.00;47.50;;;;;;4943487;28;45203;-63
2022/03/05 05:50:34;;;;;;;2.58;2.00;;;15.20;47.20;;;;;;4922722;28;45474;-62
2022/03/05 05:53:00;;;;;;;2.63;2.05;;;15.40;47.10;;;;;;4903672;28;44851;-62
2022/03/05 05:55:25;;;;;;;2.17;1.70;;;15.50;46.80;;;;;;4943795;28;45498;-64
2022/03/05 05:57:51;;;;;;;2.83;2.00;;;15.60;46.70;;;;;;4920760;28;45175;-63
2022/03/05 06:00:17;;;;;;;1.73;1.55;;;15.70;46.60;;;;;;4939978;28;45172;-64
2022/03/05 06:02:42;;;;;;;2.17;1.80;;;15.80;46.40;;;;;;4924582;28;44807;-63
2022/03/05 06:05:08;;;;;;;1.75;1.65;;;16.00;46.30;;;;;;4954196;28;46177;-62
2022/03/05 06:07:34;;;;;;;1.70;1.40;;;16.10;46.20;;;;;;4951960;28;44842;-63
2022/03/05 06:09:59;;;;;;;2.03;1.48;;;16.20;46.00;;;;;;4944705;28;44672;-65
2022/03/05 06:12:25;;;;;;;1.45;1.33;;;16.30;45.90;;;;;;4910275;28;45052;-65
2022/03/05 06:14:54;;;;;;;8.25;1.70;;;16.40;46.50;;;;;;4955567;28;46322;-63
2022/03/05 06:17:20;;;;;;;3.13;1.70;;;16.60;45.80;;;;;;4939035;28;45239;-63
2022/03/05 06:19:46;;;;;;;3.90;1.70;;;16.60;45.60;;;;;;4943778;28;45315;-63
2022/03/05 06:22:12;;;;;;;2.28;1.60;;;16.70;45.50;;;;;;4897780;28;45221;-63
2022/03/05 06:24:37;;;;;;;2.90;1.88;;;16.80;45.50;;;;;;4954987;28;46050;-65
2022/03/05 06:27:03;;;;;;;2.08;1.73;;;16.80;45.50;;;;;;4923683;28;45188;-65
2022/03/05 06:29:29;;;;;;;1.95;1.60;;;17.00;45.40;;;;;;4946557;28;45153;-63
2022/03/05 06:31:54;;;;;;;1.95;1.40;;;17.00;45.30;;;;;;4930136;28;44833;-63
2022/03/05 06:34:20;;;;;;;4.07;1.73;;;17.10;45.30;;;;;;4939137;28;46135;-63
2022/03/05 06:36:45;;;;;;;1.40;1.30;;;17.20;45.20;;;;;;4934284;28;44921;-64
2022/03/05 06:39:11;;;;;;;2.08;1.60;;;17.40;45.10;;;;;;4929874;28;44838;-64
2022/03/05 06:41:37;;;;;;;1.95;1.20;;;17.50;45.00;;;;;;4929704;28;46265;-65
2022/03/05 06:44:02;;;;;;;1.92;1.50;;;17.60;44.80;;;;;;4928796;28;45485;-64
2022/03/05 06:46:28;;;;;;;1.35;1.23;;;17.70;44.80;;;;;;4947169;28;46567;-62
2022/03/05 06:48:53;;;;;;;2.60;1.40;;;17.80;44.70;;;;;;4943611;28;45279;-61
2022/03/05 06:51:19;;;;;;;1.40;1.20;;;17.90;44.70;;;;;;4944575;28;45122;-63
2022/03/05 06:53:44;;;;;;;1.40;1.02;;;18.00;44.60;;;;;;4928968;28;46029;-63
2022/03/05 06:56:10;;;;;;;1.50;1.10;;;18.10;44.50;;;;;;4945598;28;45532;-64
2022/03/05 06:58:35;;;;;;;1.58;1.33;;;18.30;44.50;;;;;;4933559;28;45325;-63
2022/03/05 07:01:02;;;;;;;1.55;1.45;;;18.40;44.40;;;;;;4945189;28;44665;-64
2022/03/05 07:03:27;;;;;;;1.35;1.23;;;18.40;44.30;;;;;;4948674;28;45978;-66
2022/03/05 07:05:53;;;;;;;1.30;1.20;;;18.60;44.30;;;;;;4931349;28;45320;-64
2022/03/05 07:08:19;;;;;;;1.10;1.00;;;18.60;44.20;;;;;;4927706;28;45174;-63
2022/03/05 07:10:44;;;;;;;1.20;1.10;;;18.70;44.10;;;;;;4928423;28;45182;-63
2022/03/05 07:13:10;;;;;;;4.38;1.17;;;18.90;44.10;;;;;;4943983;28;45926;-62
2022/03/05 07:15:35;;;;;;;0.77;0.77;;;18.90;43.90;;;;;;4942130;28;45148;-63
2022/03/05 07:18:01;;;;;;;1.08;0.93;;;19.00;43.90;;;;;;4919601;28;45121;-64
2022/03/05 07:20:26;;;;;;;1.75;0.85;;;19.10;43.80;;;;;;4915754;28;46120;-63
2022/03/05 07:22:52;;;;;;;1.30;1.00;;;19.20;43.60;;;;;;4918760;28;45686;-64
2022/03/05 07:25:17;;;;;;;1.33;1.10;;;19.30;43.60;;;;;;4940902;28;45350;-63
2022/03/05 07:27:43;;;;;;;1.52;1.33;;;19.40;43.60;;;;;;4947271;28;45545;-63
2022/03/05 07:30:09;;;;;;;1.20;1.10;;;19.50;43.50;;;;;;4953287;28;44793;-64
2022/03/05 07:32:35;;;;;;;1.67;1.10;;;19.60;43.40;;;;;;4930972;28;46007;-62
2022/03/05 07:35:02;;;;;;;1.00;0.90;;;19.70;43.40;;;;;;4940091;28;45271;-62
2022/03/05 07:37:27;;;;;;;3.15;0.93;;;19.80;43.30;;;;;;4947390;28;45084;-62
2022/03/05 07:39:53;;;;;;;1.02;0.88;;;19.90;43.20;;;;;;4937090;28;44781;-64
2022/03/05 07:42:18;;;;;;;1.00;0.88;;;20.00;43.10;;;;;;4923965;28;45206;-64
2022/03/05 07:44:44;;;;;;;1.00;0.90;;;20.10;43.10;;;;;;4950844;28;45208;-64
2022/03/05 07:47:10;;;;;;;2.28;0.85;;;20.10;43.10;;;;;;4930643;28;45382;-66
2022/03/05 07:49:35;;;;;;;2.28;0.90;;;20.20;43.00;;;;;;4934390;28;45273;-63
2022/03/05 07:52:01;;;;;;;2.35;1.17;;;20.30;42.90;;;;;;4928276;28;46075;-64
2022/03/05 07:54:28;;;;;;;5.07;1.15;;;20.30;42.90;;;;;;4925569;28;45145;-64
2022/03/05 07:56:54;;;;;;;1.08;0.88;;;20.30;42.80;;;;;;4929104;28;45303;-64
2022/03/05 07:59:20;;;;;;;1.23;0.90;;;20.30;42.80;;;;;;4926131;28;44794;-65
2022/03/05 08:01:45;;;;;;;4.22;1.02;;;20.30;42.80;;;;;;4938221;28;45978;-65
2022/03/05 08:04:11;;;;;;;1.80;0.80;;;20.20;43.00;;;;;;4896178;28;45777;-65
2022/03/05 08:06:37;;;;;;;1.60;1.20;;;20.20;43.10;;;;;;4936835;28;45283;-65
2022/03/05 08:09:03;;;;;;;1.92;1.13;;;20.10;43.10;;;;;;4933797;28;45305;-65
2022/03/05 08:11:29;;;;;;;1.65;0.95;;;20.10;43.20;;;;;;4916062;28;45517;-65
2022/03/05 08:13:54;;;;;;;2.75;1.38;;;20.00;43.80;;;;;;4935037;28;45448;-65
2022/03/05 08:16:20;;;;;;;2.00;1.15;;;19.90;43.40;;;;;;4935857;28;45177;-65
2022/03/05 08:18:45;;;;;;;3.58;1.23;;;19.90;43.60;;;;;;4936436;28;45549;-65
2022/03/05 08:21:11;;;;;;;2.15;1.27;;;19.80;43.50;;;;;;4918326;28;47413;-64
2022/03/05 08:23:37;;;;;;;2.90;1.08;;;19.80;43.60;;;;;;4920850;28;45521;-65
2022/03/05 08:26:03;;;;;;;1.20;1.05;;;19.80;43.60;;;;;;4916581;28;45616;-65
2022/03/05 08:28:28;;;;;;;2.53;1.20;;;19.70;43.60;;;;;;4936121;28;45241;-65
2022/03/05 08:30:54;;;;;;;3.38;1.30;;;19.70;43.70;;;;;;4916177;28;46203;-65
2022/03/05 08:33:21;;;;;;;1.40;1.15;;;19.60;43.90;;;;;;4915916;28;45191;-65
2022/03/05 08:35:48;;;;;;;4.07;1.40;;;19.50;44.10;;;;;;4917209;28;45891;-65
2022/03/05 08:38:14;;;;;;;1.38;1.27;;;19.40;44.10;;;;;;4918452;28;45265;-66
2022/03/05 08:40:40;;;;;;;1.30;1.20;;;19.40;44.10;;;;;;4936107;28;46056;-64
2022/03/05 08:43:05;;;;;;;1.98;1.15;;;19.50;44.10;;;;;;4937014;28;44657;-65
2022/03/05 08:45:31;;;;;;;1.30;1.10;;;19.40;44.00;;;;;;4917508;28;46196;-65
2022/03/05 08:47:57;;;;;;;1.60;1.10;;;19.40;44.10;;;;;;4920464;28;45445;-65
2022/03/05 08:50:22;;;;;;;1.15;1.05;;;19.30;44.20;;;;;;4936498;28;45576;-65
2022/03/05 08:52:48;;;;;;;2.47;1.05;;;19.20;44.40;;;;;;4932960;28;44936;-66
2022/03/05 08:55:16;;;;;;;1.33;1.13;;;19.20;44.40;;;;;;4916455;28;45320;-65
2022/03/05 08:57:41;;;;;;;1.25;1.00;;;19.10;44.30;;;;;;4895655;28;44936;-65
2022/03/05 09:00:08;;;;;;;1.85;1.30;;;19.10;44.40;;;;;;4933361;28;47160;-65
2022/03/05 09:02:34;;;;;;;1.88;1.25;;;19.10;44.40;;;;;;4915183;28;45446;-65
2022/03/05 09:05:00;;;;;;;1.48;1.27;;;19.10;44.40;;;;;;4901274;28;45391;-66
2022/03/05 09:07:25;;;;;;;1.50;1.10;;;19.00;44.40;;;;;;4935059;28;45255;-66
2022/03/05 09:09:51;;;;;;;1.10;0.98;;;19.00;44.40;;;;;;4934392;28;45330;-65
2022/03/05 09:12:16;;;;;;;3.70;1.33;;;19.00;44.40;;;;;;4935227;28;45625;-65
2022/03/05 09:14:42;;;;;;;1.75;1.10;;;18.90;44.40;;;;;;4901485;28;45313;-65
2022/03/05 09:17:08;;;;;;;3.42;1.25;;;18.90;44.50;;;;;;4904234;28;45328;-65
2022/03/05 09:19:33;;;;;;;2.38;1.40;;;18.80;44.60;;;;;;4917665;28;45267;-66
2022/03/05 09:21:59;;;;;;;1.88;1.48;;;18.80;44.60;;;;;;4933088;28;45367;-65
2022/03/05 09:24:24;;;;;;;1.42;1.33;;;18.80;44.70;;;;;;4899883;28;45540;-65
2022/03/05 09:26:50;;;;;;;1.60;1.20;;;18.70;44.70;;;;;;4933676;28;45168;-65
2022/03/05 09:29:16;;;;;;;1.52;1.40;;;18.70;44.70;;;;;;4902188;28;46187;-66
2022/03/05 09:31:42;;;;;;;1.92;1.15;;;18.60;44.70;;;;;;4912652;28;45518;-65
2022/03/05 09:34:08;;;;;;;2.15;1.10;;;18.60;44.70;;;;;;4914871;28;45035;-65
2022/03/05 09:36:33;;;;;;;1.35;1.17;;;18.60;44.80;;;;;;4916038;28;45559;-66
2022/03/05 09:38:59;;;;;;;1.27;1.13;;;18.60;44.80;;;;;;4940313;28;45354;-65
2022/03/05 09:41:25;;;;;;;1.17;1.02;;;18.50;44.80;;;;;;4939135;28;45234;-65
2022/03/05 09:43:50;;;;;;;2.25;1.60;;;18.50;44.80;;;;;;4921036;28;44774;-65
2022/03/05 09:46:19;;;;;;;3.80;1.30;;;18.40;44.90;;;;;;4939285;28;45586;-65
2022/03/05 09:48:45;;;;;;;1.60;1.23;;;18.40;45.00;;;;;;4921909;28;45751;-64
2022/03/05 09:51:10;;;;;;;3.80;1.30;;;18.40;45.00;;;;;;4901101;28;45521;-66
2022/03/05 09:53:36;;;;;;;2.05;1.13;;;18.40;45.00;;;;;;4918150;28;45525;-65
2022/03/05 09:56:02;;;;;;;1.77;1.40;;;18.40;45.00;;;;;;4936580;28;45609;-65
2022/03/05 09:58:27;;;;;;;2.08;1.55;;;18.30;45.00;;;;;;4921947;28;45996;-65
2022/03/05 10:00:53;;;;;;;3.55;1.40;;;18.30;45.00;;;;;;4914738;28;46267;-66
2022/03/05 10:03:19;;;;;;;1.63;1.17;;;18.20;45.10;;;;;;4913684;28;45248;-65
2022/03/05 10:05:47;;;;;;;1.83;1.40;;;18.20;45.20;;;;;;4935601;28;45311;-66
2022/03/05 10:08:15;;;;;;;1.85;1.33;;;18.10;45.30;;;;;;4935751;28;45258;-65
2022/03/05 10:10:50;;;;;;;1.95;1.50;;;18.10;45.30;;;;;;4889332;28;45566;-66
2022/03/05 10:13:20;;;;;;;1.40;1.30;;;18.10;45.40;;;;;;4938528;28;45558;-65
2022/03/05 10:15:45;;;;;;;1.55;1.20;;;18.00;45.50;;;;;;4919121;28;45212;-65
2022/03/05 10:18:11;;;;;;;1.25;1.15;;;18.00;45.40;;;;;;4920125;28;46051;-66
2022/03/05 10:20:48;;;;;;;1.73;1.35;;;18.00;45.50;;;;;;4918197;28;45249;-65
2022/03/05 10:23:14;;;;;;;2.47;1.50;;;17.90;45.50;;;;;;4921999;28;44667;-67
2022/03/05 10:25:46;;;;;;;2.63;1.38;;;17.90;45.50;;;;;;4939570;28;44756;-64
2022/03/05 10:28:17;;;;;;;1.67;1.38;;;17.80;45.60;;;;;;4937317;28;45315;-65
2022/03/05 10:30:47;;;;;;;1.55;1.40;;;17.80;45.70;;;;;;4915989;28;44802;-65
2022/03/05 10:33:33;;;;;;;1.55;1.45;;;17.90;45.60;;;;;;4933739;28;45592;-65
2022/03/05 10:36:03;;;;;;;1.98;1.40;;;17.80;45.50;;;;;;4938619;28;45256;-66
2022/03/05 10:38:43;;;;;;;1.50;1.27;;;17.80;45.60;;;;;;4934848;28;46984;-65
2022/03/05 10:41:09;;;;;;;1.67;1.35;;;17.80;45.60;;;;;;4918323;28;45351;-65
2022/03/05 10:43:34;;;;;;;4.30;1.42;;;17.70;45.50;;;;;;4913532;28;45528;-64
2022/03/05 10:46:00;;;;;;;1.45;1.35;;;17.70;45.60;;;;;;4921091;28;45346;-65
2022/03/05 10:48:30;;;;;;;2.28;1.33;;;17.70;45.60;;;;;;4932104;28;48111;-66
2022/03/05 10:51:05;;;;;;;1.27;1.10;;;17.70;45.50;;;;;;4920485;28;45341;-65
2022/03/05 10:53:49;;;;;;;1.83;1.40;;;17.70;45.50;;;;;;4931175;28;45324;-65
2022/03/05 10:56:21;;;;;;;1.30;1.20;;;17.70;45.50;;;;;;4935359;28;45330;-65
2022/03/05 10:58:57;;;;;;;6.10;1.50;;;17.70;45.50;;;;;;4921596;28;45391;-65
2022/03/05 11:01:23;;;;;;;1.80;1.48;;;17.60;45.40;;;;;;4929143;28;45312;-66
2022/03/05 11:03:53;;;;;;;1.48;1.25;;;17.60;45.50;;;;;;4938756;28;45474;-65
2022/03/05 11:06:22;;;;;;;1.65;1.20;;;17.60;45.50;;;;;;4919443;28;45387;-64
2022/03/05 11:08:48;;;;;;;1.50;1.20;;;17.60;45.50;;;;;;4913169;28;46551;-65
2022/03/05 11:11:15;;;;;;;3.13;1.85;;;17.60;45.50;;;;;;4917886;28;45230;-67
2022/03/05 11:13:40;;;;;;;1.67;1.38;;;17.50;45.50;;;;;;4916163;28;45331;-66
2022/03/05 11:16:06;;;;;;;1.50;1.23;;;17.50;45.50;;;;;;4884972;28;45005;-65
2022/03/05 11:18:32;;;;;;;1.92;1.30;;;17.50;45.60;;;;;;4919441;28;45310;-66
2022/03/05 11:20:59;;;;;;;1.58;1.30;;;17.50;45.60;;;;;;4919452;28;45425;-65
2022/03/05 11:23:24;;;;;;;1.40;1.05;;;17.40;45.50;;;;;;4918682;28;45671;-66
2022/03/05 11:25:50;;;;;;;2.67;1.67;;;17.50;45.50;;;;;;4919614;28;45105;-65
2022/03/05 11:28:19;;;;;;;2.83;1.30;;;17.50;45.50;;;;;;4943701;28;45459;-65
2022/03/05 11:30:45;;;;;;;1.15;1.05;;;17.50;45.50;;;;;;4920804;28;45211;-65
2022/03/05 11:33:11;;;;;;;1.45;1.35;;;17.50;45.40;;;;;;4923461;28;46029;-65
2022/03/05 11:35:43;;;;;;;1.95;1.40;;;17.40;45.40;;;;;;4936724;28;44778;-64
2022/03/05 11:38:34;;;;;;;1.38;1.25;;;17.40;45.50;;;;;;4924677;28;45204;-65
2022/03/05 11:41:05;;;;;;;1.33;1.20;;;17.40;45.50;;;;;;4923573;28;45568;-65
2022/03/05 11:43:40;;;;;;;1.83;1.40;;;17.30;45.60;;;;;;4944986;28;45692;-65
2022/03/05 11:46:06;;;;;;;1.52;1.33;;;17.30;45.60;;;;;;4944482;28;45340;-65
2022/03/05 11:48:33;;;;;;;1.92;1.60;;;17.30;45.60;;;;;;4938872;28;45045;-65
2022/03/05 11:51:00;;;;;;;1.73;1.52;;;17.30;45.60;;;;;;4921406;28;45427;-65
2022/03/05 11:53:26;;;;;;;2.03;1.30;;;17.30;45.60;;;;;;4938105;28;45078;-65
2022/03/05 11:55:52;;;;;;;1.40;1.25;;;17.30;45.70;;;;;;4923153;28;45309;-64
2022/03/05 11:58:24;;;;;;;1.40;1.30;;;17.20;45.70;;;;;;4940265;28;46216;-65
2022/03/05 12:00:52;;;;;;;1.60;1.50;;;17.20;45.70;;;;;;4940688;28;45328;-65
2022/03/05 12:03:42;;;;;;;1.70;1.33;;;17.20;45.80;;;;;;4919818;28;44664;-65
2022/03/05 12:06:09;;;;;;;1.60;1.33;;;17.20;45.80;;;;;;4933629;28;45397;-64
2022/03/05 12:08:34;;;;;;;1.45;1.35;;;17.10;45.70;;;;;;4934146;28;47008;-64
2022/03/05 12:11:13;;;;;;;1.70;1.48;;;17.10;45.60;;;;;;4935103;28;45774;-63
2022/03/05 12:13:43;;;;;;;1.45;1.35;;;17.10;45.80;;;;;;4929666;28;45225;-64
2022/03/05 12:16:27;;;;;;;2.50;1.33;;;17.10;45.70;;;;;;4929301;28;44765;-65
2022/03/05 12:18:54;;;;;;;3.10;1.42;;;17.30;45.60;;;;;;4922031;28;46015;-64
2022/03/05 12:21:32;;;;;;;1.40;1.30;;;17.30;45.40;;;;;;5105229;27;45239;-65
2022/03/05 12:24:08;;;;;;;1.50;1.27;;;17.50;45.20;;;;;;5086691;27;45193;-68
2022/03/05 12:26:51;;;;;;;1.35;1.13;;;17.60;45.10;;;;;;5084550;27;45371;-66
2022/03/05 12:29:17;;;;;;;1.65;1.20;;;17.80;44.80;;;;;;5082194;27;45205;-66
2022/03/05 12:31:43;;;;;;;1.42;1.30;;;17.90;44.80;;;;;;5064419;27;45188;-66
2022/03/05 12:34:09;;;;;;;1.00;0.90;;;18.00;44.60;;;;;;5066983;27;45543;-67
2022/03/05 12:36:45;;;;;;;1.58;1.33;;;18.10;44.40;;;;;;5086864;27;45355;-67
2022/03/05 12:39:11;;;;;;;1.30;1.20;;;18.30;44.40;;;;;;5052367;28;45246;-63
2022/03/05 12:41:37;;;;;;;1.95;1.13;;;18.30;44.20;;;;;;5085619;27;46161;-65
2022/03/05 12:44:02;;;;;;;1.40;0.95;;;18.50;44.10;;;;;;5065948;27;45330;-65
2022/03/05 12:46:28;;;;;;;1.20;1.10;;;18.60;44.00;;;;;;5079221;27;45558;-64
2022/03/05 12:48:54;;;;;;;1.85;1.50;;;18.60;43.90;;;;;;5085065;27;45543;-63
2022/03/05 12:51:22;;;;;;;1.40;1.27;;;18.80;43.80;;;;;;5087408;27;45353;-64
2022/03/05 12:54:00;;;;;;;2.05;1.15;;;18.90;43.70;;;;;;5116550;27;45595;-63
2022/03/05 12:56:26;;;;;;;1.10;0.93;;;19.00;43.50;;;;;;5079068;27;45604;-63
2022/03/05 12:58:57;;;;;;;1.13;1.00;;;19.10;43.50;;;;;;5079833;27;44997;-63
2022/03/05 13:01:23;;;;;;;2.08;0.90;;;19.20;43.50;;;;;;5102028;27;45484;-65
2022/03/05 13:03:49;;;;;;;1.30;1.02;;;19.30;43.40;;;;;;5091189;27;45168;-65
2022/03/05 13:06:17;;;;;;;1.48;1.15;;;19.40;43.40;;;;;;5091931;27;45594;-64
2022/03/05 13:08:43;;;;;;;1.33;0.90;;;19.50;43.20;;;;;;5098352;27;45127;-64
2022/03/05 13:11:10;;;;;;;1.55;1.00;;;19.60;43.20;;;;;;5074717;27;45131;-64
2022/03/05 13:13:46;;;;;;;2.50;1.00;;;19.70;43.20;;;;;;5068834;27;45205;-65
2022/03/05 13:16:29;;;;;;;0.85;0.80;;;19.80;42.90;;;;;;5089280;27;44700;-65
2022/03/05 13:18:56;;;;;;;0.90;0.80;;;19.90;42.90;;;;;;5103924;27;45263;-64
2022/03/05 13:21:21;;;;;;;0.90;0.85;;;20.00;42.90;;;;;;5111756;27;45353;-66
2022/03/05 13:23:47;;;;;;;0.70;0.70;;;20.10;42.80;;;;;;5092560;27;44698;-65
2022/03/05 13:26:12;;;;;;;1.58;0.80;;;20.20;42.70;;;;;;5111956;27;45376;-64
2022/03/05 13:28:38;;;;;;;0.88;0.88;;;20.30;42.70;;;;;;5082357;27;44905;-63
2022/03/05 13:31:04;;;;;;;0.70;0.70;;;20.40;42.60;;;;;;5107045;27;45848;-64
2022/03/05 13:33:41;;;;;;;0.57;0.57;;;20.50;42.50;;;;;;5096670;27;45636;-63
2022/03/05 13:36:36;;;;;;;1.02;0.90;;;20.60;42.50;;;;;;5076275;27;45390;-65
2022/03/05 13:39:11;;;;;;;1.98;0.77;;;20.70;42.10;;;;;;5062420;27;44745;-64
2022/03/05 13:41:44;;;;;;;2.72;0.80;;;20.80;42.20;;;;;;5093168;27;45242;-64
2022/03/05 13:44:32;;;;;;;1.10;0.75;;;20.90;42.10;;;;;;5084236;27;45045;-64
2022/03/05 13:46:58;;;;;;;2.95;0.90;;;21.00;42.70;;;;;;5072031;27;44804;-64
2022/03/05 13:49:25;;;;;;;1.25;0.80;;;21.10;42.20;;;;;;5087929;27;45545;-64
2022/03/05 13:51:52;;;;;;;0.75;0.75;;;21.10;42.00;;;;;;5070479;27;46397;-63
2022/03/05 13:54:33;;;;;;;1.23;0.80;;;21.20;42.00;;;;;;5096863;27;45767;-63
2022/03/05 13:56:59;;;;;;;1.52;0.73;;;21.30;41.60;;;;;;5093886;27;45511;-66
2022/03/05 13:59:51;;;;;;;1.13;1.00;;;21.40;41.90;;;;;;5064447;27;46054;-65
2022/03/05 14:02:17;;;;;;;1.02;0.85;;;21.50;41.40;;;;;;5077451;27;46250;-65
2022/03/05 14:04:59;;;;;;;0.60;0.55;;;21.60;41.80;;;;;;5072824;27;45267;-64
2022/03/05 14:07:25;;;;;;;1.00;0.70;;;21.70;41.40;;;;;;5090047;27;45207;-64
2022/03/05 14:09:51;;;;;;;0.95;0.75;;;21.70;41.70;;;;;;5066793;27;45148;-64
2022/03/05 14:12:18;;;;;;;1.00;0.90;;;21.80;41.60;;;;;;5084354;27;46408;-64
2022/03/05 14:14:48;;;;;;;1.65;0.80;;;21.90;41.50;;;;;;5076990;27;45307;-64
2022/03/05 14:17:23;;;;;;;0.77;0.70;;;22.00;41.40;;;;;;5095093;27;46147;-65
2022/03/05 14:19:49;;;;;;;0.75;0.70;;;22.10;41.20;;;;;;5104031;27;45828;-64
2022/03/05 14:22:19;;;;;;;1.45;0.80;;;22.10;41.40;;;;;;5057308;27;46035;-65
2022/03/05 14:24:45;;;;;;;0.82;0.75;;;22.20;41.30;;;;;;5077553;27;45221;-65
2022/03/05 14:27:14;;;;;;;0.70;0.60;;;22.30;41.30;;;;;;5074672;27;45057;-67
2022/03/05 14:29:41;;;;;;;3.25;0.85;;;22.40;41.20;;;;;;5053062;27;45256;-64
2022/03/05 14:32:07;;;;;;;0.70;0.70;;;22.40;41.10;;;;;;5076052;27;45310;-65
2022/03/05 14:34:32;;;;;;;1.08;0.65;;;22.50;41.20;;;;;;5072073;27;45391;-65
2022/03/05 14:36:58;;;;;;;0.75;0.75;;;22.50;41.10;;;;;;5057683;27;45258;-64
2022/03/05 14:39:23;;;;;;;0.80;0.65;;;22.60;41.00;;;;;;5090436;27;45566;-65
2022/03/05 14:41:49;;;;;;;0.77;0.77;;;22.70;41.00;;;;;;5076688;27;45930;-65
2022/03/05 14:44:15;;;;;;;2.80;0.68;;;22.70;41.00;;;;;;5108487;27;45413;-63
2022/03/05 14:46:40;;;;;;;0.98;0.90;;;22.80;40.90;;;;;;5093341;27;45552;-66
2022/03/05 14:49:06;;;;;;;0.80;0.63;;;22.90;40.90;;;;;;5074164;27;45218;-64
2022/03/05 14:51:34;;;;;;;1.75;0.57;;;22.90;40.80;;;;;;5066672;27;46231;-63
2022/03/05 14:54:00;;;;;;;0.90;0.70;;;23.00;40.70;;;;;;5075766;27;45265;-63
2022/03/05 14:56:25;;;;;;;1.05;0.50;;;23.10;40.70;;;;;;5043337;27;45307;-66
2022/03/05 14:58:51;;;;;;;1.08;0.70;;;23.10;40.60;;;;;;5064406;27;45303;-67
2022/03/05 15:01:19;;;;;;;1.30;0.90;;;23.20;40.50;;;;;;5088867;27;46257;-66
2022/03/05 15:03:45;;;;;;;2.45;0.60;;;23.20;40.50;;;;;;5059598;27;45318;-65
2022/03/05 15:06:10;;;;;;;0.60;0.57;;;23.30;40.50;;;;;;5091346;27;45232;-65
2022/03/05 15:08:36;;;;;;;2.47;0.70;;;23.40;40.50;;;;;;5075124;27;44795;-62
2022/03/05 15:11:01;;;;;;;2.30;0.55;;;23.40;40.40;;;;;;5102090;27;46821;-65
2022/03/05 15:13:27;;;;;;;0.93;0.52;;;23.50;40.30;;;;;;5075481;27;44911;-64
2022/03/05 15:15:53;;;;;;;0.88;0.80;;;23.50;40.20;;;;;;5091188;27;45143;-64
2022/03/05 15:18:19;;;;;;;0.68;0.68;;;23.60;40.20;;;;;;5069524;27;45452;-65
2022/03/05 15:20:45;;;;;;;1.02;0.70;;;23.60;40.20;;;;;;5078614;27;46881;-63
2022/03/05 15:23:11;;;;;;;1.00;0.60;;;23.70;40.10;;;;;;5069396;27;45324;-64
2022/03/05 15:25:37;;;;;;;0.50;0.50;;;23.80;40.10;;;;;;5095540;27;45255;-69
2022/03/05 15:28:02;;;;;;;1.50;0.63;;;23.80;40.10;;;;;;5064350;27;46024;-65
2022/03/05 15:30:28;;;;;;;1.00;0.80;;;23.90;40.10;;;;;;5040969;27;45398;-64
2022/03/05 15:32:54;;;;;;;1.05;0.70;;;23.90;40.10;;;;;;5078846;27;45697;-64
2022/03/05 15:35:20;;;;;;;1.20;0.70;;;24.00;40.00;;;;;;5054345;27;45205;-64
2022/03/05 15:37:52;;;;;;;0.50;0.50;;;24.10;40.00;;;;;;5094973;27;45493;-64
2022/03/05 15:40:18;;;;;;;1.52;0.45;;;24.10;40.00;;;;;;5087362;27;46477;-64
2022/03/05 15:42:43;;;;;;;0.57;0.50;;;24.10;39.80;;;;;;5088031;27;44839;-64
2022/03/05 15:45:10;;;;;;;1.17;0.50;;;24.20;39.80;;;;;;5061397;27;45020;-64
2022/03/05 15:47:35;;;;;;;0.40;0.40;;;24.10;39.80;;;;;;5076125;27;45462;-64
2022/03/05 15:50:01;;;;;;;1.33;0.70;;;24.00;39.80;;;;;;5043499;27;47108;-64
2022/03/05 15:52:26;;;;;;;0.65;0.60;;;23.90;39.90;;;;;;5057309;27;44782;-64
2022/03/05 15:54:52;;;;;;;1.58;0.70;;;23.80;39.90;;;;;;5096629;27;44745;-64
2022/03/05 15:57:17;;;;;;;0.57;0.57;;;23.70;40.00;;;;;;5080795;27;45393;-64
2022/03/05 15:59:43;;;;;;;2.90;0.70;;;23.60;40.20;;;;;;5074006;27;45028;-64
2022/03/05 16:02:09;;;;;;;0.90;0.70;;;23.60;40.40;;;;;;5051803;27;45254;-64
2022/03/05 16:04:34;;;;;;;1.42;0.80;;;23.40;40.50;;;;;;5077074;27;45425;-64
2022/03/05 16:07:00;;;;;;;0.60;0.50;;;23.30;40.70;;;;;;5100676;27;45855;-64
2022/03/05 16:09:25;;;;;;;1.23;0.63;;;23.30;40.90;;;;;;5090861;27;45245;-64
2022/03/05 16:11:51;;;;;;;2.28;0.73;;;23.20;40.90;;;;;;5101872;27;45268;-64
2022/03/05 16:14:17;;;;;;;0.70;0.63;;;23.10;41.10;;;;;;5098520;27;45129;-63
2022/03/05 16:16:42;;;;;;;0.60;0.50;;;23.00;41.10;;;;;;5096013;27;46001;-64
2022/03/05 16:19:08;;;;;;;1.55;0.63;;;22.90;41.20;;;;;;5096696;27;45930;-63
2022/03/05 16:21:33;;;;;;;0.60;0.60;;;22.90;41.40;;;;;;5102193;27;45340;-64
2022/03/05 16:23:59;;;;;;;0.45;0.43;;;22.80;41.40;;;;;;5071465;27;45245;-63
2022/03/05 16:26:24;;;;;;;0.98;0.77;;;22.70;41.50;;;;;;5094800;27;44863;-64
2022/03/05 16:28:51;;;;;;;0.80;0.75;;;22.60;41.70;;;;;;5074029;27;45590;-64
2022/03/05 16:31:16;;;;;;;0.65;0.60;;;22.50;41.70;;;;;;5070917;27;45302;-64
2022/03/05 16:33:42;;;;;;;0.98;0.70;;;22.50;41.90;;;;;;5093378;27;45751;-64
2022/03/05 16:36:08;;;;;;;0.77;0.70;;;22.40;41.90;;;;;;5068207;27;45401;-64
2022/03/05 16:38:34;;;;;;;0.88;0.60;;;22.30;42.00;;;;;;5069603;27;45901;-64
2022/03/05 16:41:00;;;;;;;0.60;0.60;;;22.20;42.10;;;;;;5070967;27;44655;-64
2022/03/05 16:43:25;;;;;;;1.08;0.70;;;22.20;42.20;;;;;;5100736;27;45132;-63
2022/03/05 16:45:51;;;;;;;2.30;0.80;;;22.10;42.30;;;;;;5068079;27;45564;-64
2022/03/05 16:48:17;;;;;;;0.80;0.80;;;22.00;42.40;;;;;;5048383;27;45758;-64
2022/03/05 16:50:42;;;;;;;1.10;0.60;;;22.00;42.40;;;;;;5070513;27;45715;-64